Terminal Aerodrome Forecast
Issued by NWS

Home | Current Version | Previous Version | Text Only | Print | Product List | Glossary On
Versions: 1 2 3 4 5 6 7 8 9 10 11 12 13 14 15 16 17 18 19 20 21
000
FTUS46 KOTX 182320
TAFSFF
TAF
KSFF 182320Z 1900/1924 24014G22KT P6SM SCT070 SCT200
     FM190200 24005KT P6SM FEW250
     FM190400 VRB03KT P6SM SCT250
     FM191400 16005KT P6SM SCT100 BKN200
     FM192300 23015G26KT P6SM SCT080 BKN100 OVC200=

USA.gov is the U.S. government's official web portal to all federal, state and local government web resources and services.